sensor_id;sensor_type;location;lat;lon;timestamp;P1;durP1;ratioP1;P2;durP2;ratioP2
16845;SDS011;8539;53.188;8.696;2023-09-30T00:01:02;13.00;;;4.65;;
16845;SDS011;8539;53.188;8.696;2023-09-30T00:03:28;16.00;;;4.68;;
16845;SDS011;8539;53.188;8.696;2023-09-30T00:06:02;18.10;;;5.07;;
16845;SDS011;8539;53.188;8.696;2023-09-30T00:08:30;15.15;;;4.90;;
16845;SDS011;8539;53.188;8.696;2023-09-30T00:10:56;14.50;;;4.95;;
16845;SDS011;8539;53.188;8.696;2023-09-30T00:13:23;18.00;;;4.72;;
16845;SDS011;8539;53.188;8.696;2023-09-30T00:15:49;14.23;;;4.18;;
16845;SDS011;8539;53.188;8.696;2023-09-30T00:18:15;26.48;;;4.90;;
16845;SDS011;8539;53.188;8.696;2023-09-30T00:20:42;26.05;;;6.15;;
16845;SDS011;8539;53.188;8.696;2023-09-30T00:23:08;21.05;;;4.75;;
16845;SDS011;8539;53.188;8.696;2023-09-30T00:25:36;19.63;;;4.80;;
16845;SDS011;8539;53.188;8.696;2023-09-30T00:28:03;29.25;;;6.13;;
16845;SDS011;8539;53.188;8.696;2023-09-30T00:30:29;12.10;;;5.47;;
16845;SDS011;8539;53.188;8.696;2023-09-30T00:32:56;16.55;;;4.63;;
16845;SDS011;8539;53.188;8.696;2023-09-30T00:35:22;16.10;;;5.30;;
16845;SDS011;8539;53.188;8.696;2023-09-30T00:37:48;21.67;;;5.50;;
16845;SDS011;8539;53.188;8.696;2023-09-30T00:40:14;20.85;;;4.30;;
16845;SDS011;8539;53.188;8.696;2023-09-30T00:42:41;14.52;;;4.63;;
16845;SDS011;8539;53.188;8.696;2023-09-30T00:45:07;14.93;;;5.00;;
16845;SDS011;8539;53.188;8.696;2023-09-30T00:47:38;15.60;;;5.10;;
16845;SDS011;8539;53.188;8.696;2023-09-30T00:50:05;20.70;;;5.57;;
16845;SDS011;8539;53.188;8.696;2023-09-30T00:52:34;13.82;;;5.25;;
16845;SDS011;8539;53.188;8.696;2023-09-30T00:55:02;25.40;;;5.18;;
16845;SDS011;8539;53.188;8.696;2023-09-30T00:57:28;9.15;;;3.65;;
16845;SDS011;8539;53.188;8.696;2023-09-30T00:59:56;19.88;;;5.03;;
16845;SDS011;8539;53.188;8.696;2023-09-30T01:02:26;21.13;;;5.53;;
16845;SDS011;8539;53.188;8.696;2023-09-30T01:04:52;12.52;;;5.43;;
16845;SDS011;8539;53.188;8.696;2023-09-30T01:07:19;24.00;;;5.43;;
16845;SDS011;8539;53.188;8.696;2023-09-30T01:09:47;22.50;;;5.82;;
16845;SDS011;8539;53.188;8.696;2023-09-30T01:12:15;20.90;;;5.57;;
16845;SDS011;8539;53.188;8.696;2023-09-30T01:14:42;16.30;;;5.57;;
16845;SDS011;8539;53.188;8.696;2023-09-30T01:17:08;15.00;;;5.85;;
16845;SDS011;8539;53.188;8.696;2023-09-30T01:19:34;17.42;;;5.63;;
16845;SDS011;8539;53.188;8.696;2023-09-30T01:22:01;16.45;;;4.75;;
16845;SDS011;8539;53.188;8.696;2023-09-30T01:24:31;19.25;;;6.03;;
16845;SDS011;8539;53.188;8.696;2023-09-30T01:27:04;25.05;;;5.47;;
16845;SDS011;8539;53.188;8.696;2023-09-30T01:29:30;17.42;;;5.32;;
16845;SDS011;8539;53.188;8.696;2023-09-30T01:31:57;15.57;;;5.00;;
16845;SDS011;8539;53.188;8.696;2023-09-30T01:34:23;19.83;;;5.30;;
16845;SDS011;8539;53.188;8.696;2023-09-30T01:36:50;18.45;;;5.00;;
16845;SDS011;8539;53.188;8.696;2023-09-30T01:39:16;10.25;;;4.65;;
16845;SDS011;8539;53.188;8.696;2023-09-30T01:41:43;21.27;;;6.30;;
16845;SDS011;8539;53.188;8.696;2023-09-30T01:44:09;16.70;;;5.45;;
16845;SDS011;8539;53.188;8.696;2023-09-30T01:46:35;21.88;;;5.53;;
16845;SDS011;8539;53.188;8.696;2023-09-30T01:49:02;14.23;;;5.80;;
16845;SDS011;8539;53.188;8.696;2023-09-30T01:51:41;13.07;;;4.85;;
16845;SDS011;8539;53.188;8.696;2023-09-30T01:54:07;17.00;;;5.55;;
16845;SDS011;8539;53.188;8.696;2023-09-30T01:56:33;18.02;;;4.90;;
16845;SDS011;8539;53.188;8.696;2023-09-30T01:58:59;20.17;;;5.68;;
16845;SDS011;8539;53.188;8.696;2023-09-30T02:01:25;10.85;;;4.85;;
16845;SDS011;8539;53.188;8.696;2023-09-30T02:03:51;15.82;;;4.85;;
16845;SDS011;8539;53.188;8.696;2023-09-30T02:06:17;19.70;;;5.95;;
16845;SDS011;8539;53.188;8.696;2023-09-30T02:08:44;23.92;;;5.22;;
16845;SDS011;8539;53.188;8.696;2023-09-30T02:11:10;16.77;;;4.50;;
16845;SDS011;8539;53.188;8.696;2023-09-30T02:13:38;18.38;;;5.55;;
16845;SDS011;8539;53.188;8.696;2023-09-30T02:16:10;21.05;;;5.97;;
16845;SDS011;8539;53.188;8.696;2023-09-30T02:18:38;23.40;;;5.55;;
16845;SDS011;8539;53.188;8.696;2023-09-30T02:21:06;18.98;;;5.05;;
16845;SDS011;8539;53.188;8.696;2023-09-30T02:23:34;17.77;;;5.55;;
16845;SDS011;8539;53.188;8.696;2023-09-30T02:26:01;16.30;;;4.72;;
16845;SDS011;8539;53.188;8.696;2023-09-30T02:28:28;22.83;;;4.85;;
16845;SDS011;8539;53.188;8.696;2023-09-30T02:30:58;16.58;;;4.88;;
16845;SDS011;8539;53.188;8.696;2023-09-30T02:33:26;17.98;;;4.68;;
16845;SDS011;8539;53.188;8.696;2023-09-30T02:35:52;21.83;;;5.10;;
16845;SDS011;8539;53.188;8.696;2023-09-30T02:38:18;16.23;;;5.15;;
16845;SDS011;8539;53.188;8.696;2023-09-30T02:40:47;17.02;;;4.75;;
16845;SDS011;8539;53.188;8.696;2023-09-30T02:43:14;17.52;;;4.35;;
16845;SDS011;8539;53.188;8.696;2023-09-30T02:45:40;17.33;;;6.00;;
16845;SDS011;8539;53.188;8.696;2023-09-30T02:48:06;15.55;;;5.43;;
16845;SDS011;8539;53.188;8.696;2023-09-30T02:50:32;22.08;;;4.68;;
16845;SDS011;8539;53.188;8.696;2023-09-30T02:52:58;18.67;;;5.35;;
16845;SDS011;8539;53.188;8.696;2023-09-30T02:55:24;14.00;;;4.20;;
16845;SDS011;8539;53.188;8.696;2023-09-30T02:57:50;16.33;;;4.45;;
16845;SDS011;8539;53.188;8.696;2023-09-30T03:00:18;13.98;;;4.90;;
16845;SDS011;8539;53.188;8.696;2023-09-30T03:02:52;20.77;;;5.53;;
16845;SDS011;8539;53.188;8.696;2023-09-30T03:05:19;19.50;;;4.68;;
16845;SDS011;8539;53.188;8.696;2023-09-30T03:07:45;22.77;;;6.00;;
16845;SDS011;8539;53.188;8.696;2023-09-30T03:10:12;18.75;;;5.32;;
16845;SDS011;8539;53.188;8.696;2023-09-30T03:12:52;23.67;;;5.85;;
16845;SDS011;8539;53.188;8.696;2023-09-30T03:15:18;13.40;;;4.50;;
16845;SDS011;8539;53.188;8.696;2023-09-30T03:17:45;16.55;;;5.13;;
16845;SDS011;8539;53.188;8.696;2023-09-30T03:20:11;15.57;;;4.68;;
16845;SDS011;8539;53.188;8.696;2023-09-30T03:22:43;17.90;;;5.95;;
16845;SDS011;8539;53.188;8.696;2023-09-30T03:25:12;12.40;;;5.88;;
16845;SDS011;8539;53.188;8.696;2023-09-30T03:27:41;19.25;;;5.13;;
16845;SDS011;8539;53.188;8.696;2023-09-30T03:30:07;12.52;;;4.82;;
16845;SDS011;8539;53.188;8.696;2023-09-30T03:32:35;12.48;;;5.03;;
16845;SDS011;8539;53.188;8.696;2023-09-30T03:35:04;22.30;;;5.75;;
16845;SDS011;8539;53.188;8.696;2023-09-30T03:37:31;14.00;;;5.07;;
16845;SDS011;8539;53.188;8.696;2023-09-30T03:39:58;25.15;;;5.63;;
16845;SDS011;8539;53.188;8.696;2023-09-30T03:42:24;17.27;;;4.75;;
16845;SDS011;8539;53.188;8.696;2023-09-30T03:44:50;10.75;;;4.53;;
16845;SDS011;8539;53.188;8.696;2023-09-30T03:47:16;10.75;;;5.03;;
16845;SDS011;8539;53.188;8.696;2023-09-30T03:49:44;15.25;;;6.07;;
16845;SDS011;8539;53.188;8.696;2023-09-30T03:52:11;16.33;;;5.30;;
16845;SDS011;8539;53.188;8.696;2023-09-30T03:54:37;18.27;;;5.05;;
16845;SDS011;8539;53.188;8.696;2023-09-30T03:57:26;11.38;;;4.85;;
16845;SDS011;8539;53.188;8.696;2023-09-30T04:00:01;17.48;;;5.82;;
16845;SDS011;8539;53.188;8.696;2023-09-30T04:02:31;16.77;;;5.38;;
16845;SDS011;8539;53.188;8.696;2023-09-30T04:04:59;14.40;;;5.03;;
16845;SDS011;8539;53.188;8.696;2023-09-30T04:07:29;13.32;;;6.03;;
16845;SDS011;8539;53.188;8.696;2023-09-30T04:09:55;17.08;;;5.28;;
16845;SDS011;8539;53.188;8.696;2023-09-30T04:12:22;21.67;;;6.25;;
16845;SDS011;8539;53.188;8.696;2023-09-30T04:14:51;20.10;;;4.72;;
16845;SDS011;8539;53.188;8.696;2023-09-30T04:17:18;13.90;;;5.65;;
16845;SDS011;8539;53.188;8.696;2023-09-30T04:19:44;15.52;;;5.35;;
16845;SDS011;8539;53.188;8.696;2023-09-30T04:22:11;16.38;;;6.13;;
16845;SDS011;8539;53.188;8.696;2023-09-30T04:24:38;17.83;;;5.43;;
16845;SDS011;8539;53.188;8.696;2023-09-30T04:27:05;13.27;;;5.68;;
16845;SDS011;8539;53.188;8.696;2023-09-30T04:29:33;13.82;;;5.05;;
16845;SDS011;8539;53.188;8.696;2023-09-30T04:32:00;12.68;;;5.72;;
16845;SDS011;8539;53.188;8.696;2023-09-30T04:34:26;17.50;;;6.18;;
16845;SDS011;8539;53.188;8.696;2023-09-30T04:36:53;14.80;;;5.75;;
16845;SDS011;8539;53.188;8.696;2023-09-30T04:39:19;17.92;;;5.80;;
16845;SDS011;8539;53.188;8.696;2023-09-30T04:41:45;15.95;;;5.63;;
16845;SDS011;8539;53.188;8.696;2023-09-30T04:44:12;14.07;;;5.13;;
16845;SDS011;8539;53.188;8.696;2023-09-30T04:46:38;13.57;;;4.47;;
16845;SDS011;8539;53.188;8.696;2023-09-30T04:49:07;17.77;;;5.63;;
16845;SDS011;8539;53.188;8.696;2023-09-30T04:51:33;12.18;;;5.18;;
16845;SDS011;8539;53.188;8.696;2023-09-30T04:54:00;20.67;;;5.18;;
16845;SDS011;8539;53.188;8.696;2023-09-30T04:56:27;20.65;;;4.88;;
16845;SDS011;8539;53.188;8.696;2023-09-30T04:58:53;14.32;;;5.38;;
16845;SDS011;8539;53.188;8.696;2023-09-30T05:01:19;10.32;;;5.22;;
16845;SDS011;8539;53.188;8.696;2023-09-30T05:03:45;19.60;;;5.60;;
16845;SDS011;8539;53.188;8.696;2023-09-30T05:06:15;12.07;;;4.78;;
16845;SDS011;8539;53.188;8.696;2023-09-30T05:08:41;14.43;;;4.63;;
16845;SDS011;8539;53.188;8.696;2023-09-30T05:11:07;17.92;;;4.85;;
16845;SDS011;8539;53.188;8.696;2023-09-30T05:13:33;17.40;;;4.78;;
16845;SDS011;8539;53.188;8.696;2023-09-30T05:15:59;23.17;;;5.90;;
16845;SDS011;8539;53.188;8.696;2023-09-30T05:18:25;11.38;;;5.13;;
16845;SDS011;8539;53.188;8.696;2023-09-30T05:20:52;16.90;;;5.28;;
16845;SDS011;8539;53.188;8.696;2023-09-30T05:23:18;17.00;;;4.38;;
16845;SDS011;8539;53.188;8.696;2023-09-30T05:25:44;10.43;;;4.70;;
16845;SDS011;8539;53.188;8.696;2023-09-30T05:28:11;14.18;;;5.07;;
16845;SDS011;8539;53.188;8.696;2023-09-30T05:30:39;21.20;;;5.32;;
16845;SDS011;8539;53.188;8.696;2023-09-30T05:33:06;14.00;;;5.05;;
16845;SDS011;8539;53.188;8.696;2023-09-30T05:35:32;13.02;;;4.25;;
16845;SDS011;8539;53.188;8.696;2023-09-30T05:37:59;13.27;;;4.15;;
16845;SDS011;8539;53.188;8.696;2023-09-30T05:40:25;12.40;;;4.45;;
16845;SDS011;8539;53.188;8.696;2023-09-30T05:42:52;20.13;;;4.78;;
16845;SDS011;8539;53.188;8.696;2023-09-30T05:45:19;11.73;;;4.72;;
16845;SDS011;8539;53.188;8.696;2023-09-30T05:47:48;15.75;;;4.40;;
16845;SDS011;8539;53.188;8.696;2023-09-30T05:50:17;14.95;;;4.55;;
16845;SDS011;8539;53.188;8.696;2023-09-30T05:52:49;16.27;;;4.93;;
16845;SDS011;8539;53.188;8.696;2023-09-30T05:55:19;15.05;;;4.70;;
16845;SDS011;8539;53.188;8.696;2023-09-30T05:57:48;9.40;;;4.20;;
16845;SDS011;8539;53.188;8.696;2023-09-30T06:00:15;15.15;;;5.70;;
16845;SDS011;8539;53.188;8.696;2023-09-30T06:02:49;14.65;;;4.47;;
16845;SDS011;8539;53.188;8.696;2023-09-30T06:05:17;9.45;;;4.30;;
16845;SDS011;8539;53.188;8.696;2023-09-30T06:07:48;17.95;;;5.28;;
16845;SDS011;8539;53.188;8.696;2023-09-30T06:10:17;18.50;;;4.70;;
16845;SDS011;8539;53.188;8.696;2023-09-30T06:12:46;10.05;;;4.15;;
16845;SDS011;8539;53.188;8.696;2023-09-30T06:15:15;14.05;;;4.28;;
16845;SDS011;8539;53.188;8.696;2023-09-30T06:17:49;15.40;;;4.72;;
16845;SDS011;8539;53.188;8.696;2023-09-30T06:20:15;15.50;;;4.80;;
16845;SDS011;8539;53.188;8.696;2023-09-30T06:22:43;11.85;;;4.90;;
16845;SDS011;8539;53.188;8.696;2023-09-30T06:25:17;10.93;;;4.55;;
16845;SDS011;8539;53.188;8.696;2023-09-30T06:27:43;21.40;;;5.90;;
16845;SDS011;8539;53.188;8.696;2023-09-30T06:30:10;18.98;;;6.05;;
16845;SDS011;8539;53.188;8.696;2023-09-30T06:32:37;13.50;;;5.30;;
16845;SDS011;8539;53.188;8.696;2023-09-30T06:35:03;15.90;;;4.80;;
16845;SDS011;8539;53.188;8.696;2023-09-30T06:37:34;16.38;;;5.60;;
16845;SDS011;8539;53.188;8.696;2023-09-30T06:40:01;12.20;;;4.95;;
16845;SDS011;8539;53.188;8.696;2023-09-30T06:42:30;17.95;;;5.80;;
16845;SDS011;8539;53.188;8.696;2023-09-30T06:44:56;12.95;;;5.15;;
16845;SDS011;8539;53.188;8.696;2023-09-30T06:47:23;13.45;;;5.45;;
16845;SDS011;8539;53.188;8.696;2023-09-30T06:49:49;18.60;;;5.22;;
16845;SDS011;8539;53.188;8.696;2023-09-30T06:52:15;16.20;;;6.90;;
16845;SDS011;8539;53.188;8.696;2023-09-30T06:54:41;14.18;;;5.80;;
16845;SDS011;8539;53.188;8.696;2023-09-30T06:57:07;14.38;;;5.85;;
16845;SDS011;8539;53.188;8.696;2023-09-30T06:59:35;15.65;;;4.70;;
16845;SDS011;8539;53.188;8.696;2023-09-30T07:02:01;15.82;;;5.55;;
16845;SDS011;8539;53.188;8.696;2023-09-30T07:04:29;11.05;;;4.32;;
16845;SDS011;8539;53.188;8.696;2023-09-30T07:06:55;19.75;;;4.85;;
16845;SDS011;8539;53.188;8.696;2023-09-30T07:09:21;16.98;;;6.00;;
16845;SDS011;8539;53.188;8.696;2023-09-30T07:11:47;17.30;;;4.88;;
16845;SDS011;8539;53.188;8.696;2023-09-30T07:14:14;12.85;;;5.10;;
16845;SDS011;8539;53.188;8.696;2023-09-30T07:16:40;15.70;;;5.47;;
16845;SDS011;8539;53.188;8.696;2023-09-30T07:19:06;23.67;;;4.75;;
16845;SDS011;8539;53.188;8.696;2023-09-30T07:21:32;20.38;;;5.28;;
16845;SDS011;8539;53.188;8.696;2023-09-30T07:23:58;21.80;;;6.20;;
16845;SDS011;8539;53.188;8.696;2023-09-30T07:26:25;14.18;;;5.35;;
16845;SDS011;8539;53.188;8.696;2023-09-30T07:28:51;14.75;;;5.15;;
16845;SDS011;8539;53.188;8.696;2023-09-30T07:31:19;15.73;;;4.88;;
16845;SDS011;8539;53.188;8.696;2023-09-30T07:33:45;14.70;;;5.75;;
16845;SDS011;8539;53.188;8.696;2023-09-30T07:36:13;15.43;;;5.47;;
16845;SDS011;8539;53.188;8.696;2023-09-30T07:38:40;19.95;;;5.28;;
16845;SDS011;8539;53.188;8.696;2023-09-30T07:41:05;14.52;;;5.30;;
16845;SDS011;8539;53.188;8.696;2023-09-30T07:43:34;20.63;;;6.68;;
16845;SDS011;8539;53.188;8.696;2023-09-30T07:46:04;18.55;;;5.57;;
16845;SDS011;8539;53.188;8.696;2023-09-30T07:48:31;20.67;;;5.82;;
16845;SDS011;8539;53.188;8.696;2023-09-30T07:50:58;18.80;;;5.60;;
16845;SDS011;8539;53.188;8.696;2023-09-30T07:53:24;12.05;;;3.95;;
16845;SDS011;8539;53.188;8.696;2023-09-30T07:55:50;16.38;;;5.03;;
16845;SDS011;8539;53.188;8.696;2023-09-30T07:58:16;14.25;;;4.72;;
16845;SDS011;8539;53.188;8.696;2023-09-30T08:00:42;19.63;;;5.50;;
16845;SDS011;8539;53.188;8.696;2023-09-30T08:03:08;10.85;;;4.60;;
16845;SDS011;8539;53.188;8.696;2023-09-30T08:05:34;17.85;;;5.60;;
16845;SDS011;8539;53.188;8.696;2023-09-30T08:08:01;13.75;;;4.70;;
16845;SDS011;8539;53.188;8.696;2023-09-30T08:10:27;18.38;;;5.50;;
16845;SDS011;8539;53.188;8.696;2023-09-30T08:12:55;21.55;;;5.97;;
16845;SDS011;8539;53.188;8.696;2023-09-30T08:15:24;12.55;;;4.85;;
16845;SDS011;8539;53.188;8.696;2023-09-30T08:17:51;10.13;;;4.70;;
16845;SDS011;8539;53.188;8.696;2023-09-30T08:20:17;15.77;;;4.70;;
16845;SDS011;8539;53.188;8.696;2023-09-30T08:22:44;11.63;;;5.32;;
16845;SDS011;8539;53.188;8.696;2023-09-30T08:25:10;12.38;;;4.90;;
16845;SDS011;8539;53.188;8.696;2023-09-30T08:27:37;12.35;;;4.43;;
16845;SDS011;8539;53.188;8.696;2023-09-30T08:30:07;21.23;;;5.40;;
16845;SDS011;8539;53.188;8.696;2023-09-30T08:32:34;12.82;;;4.82;;
16845;SDS011;8539;53.188;8.696;2023-09-30T08:35:01;11.52;;;4.82;;
16845;SDS011;8539;53.188;8.696;2023-09-30T08:37:29;11.32;;;4.07;;
16845;SDS011;8539;53.188;8.696;2023-09-30T08:39:55;20.75;;;5.75;;
16845;SDS011;8539;53.188;8.696;2023-09-30T08:42:22;15.05;;;4.78;;
16845;SDS011;8539;53.188;8.696;2023-09-30T08:44:51;15.48;;;5.10;;
16845;SDS011;8539;53.188;8.696;2023-09-30T08:47:22;11.98;;;5.18;;
16845;SDS011;8539;53.188;8.696;2023-09-30T08:49:54;15.68;;;4.57;;
16845;SDS011;8539;53.188;8.696;2023-09-30T08:52:23;12.85;;;4.63;;
16845;SDS011;8539;53.188;8.696;2023-09-30T08:54:51;13.13;;;4.60;;
16845;SDS011;8539;53.188;8.696;2023-09-30T08:57:18;14.30;;;4.95;;
16845;SDS011;8539;53.188;8.696;2023-09-30T08:59:45;8.52;;;4.03;;
16845;SDS011;8539;53.188;8.696;2023-09-30T09:02:14;17.83;;;4.72;;
16845;SDS011;8539;53.188;8.696;2023-09-30T09:04:40;15.63;;;5.15;;
16845;SDS011;8539;53.188;8.696;2023-09-30T09:07:06;10.10;;;4.38;;
16845;SDS011;8539;53.188;8.696;2023-09-30T09:09:32;13.00;;;4.28;;
16845;SDS011;8539;53.188;8.696;2023-09-30T09:11:59;15.07;;;4.85;;
16845;SDS011;8539;53.188;8.696;2023-09-30T09:14:36;12.63;;;3.88;;
16845;SDS011;8539;53.188;8.696;2023-09-30T09:17:10;10.30;;;3.38;;
16845;SDS011;8539;53.188;8.696;2023-09-30T09:19:36;11.48;;;4.45;;
16845;SDS011;8539;53.188;8.696;2023-09-30T09:22:03;14.23;;;4.05;;
16845;SDS011;8539;53.188;8.696;2023-09-30T09:24:36;9.63;;;3.25;;
16845;SDS011;8539;53.188;8.696;2023-09-30T09:29:35;21.17;;;4.05;;
16845;SDS011;8539;53.188;8.696;2023-09-30T09:32:11;13.35;;;4.25;;
16845;SDS011;8539;53.188;8.696;2023-09-30T09:34:40;9.52;;;3.67;;
16845;SDS011;8539;53.188;8.696;2023-09-30T09:37:16;8.45;;;2.92;;
16845;SDS011;8539;53.188;8.696;2023-09-30T09:39:53;11.88;;;2.65;;
16845;SDS011;8539;53.188;8.696;2023-09-30T09:42:28;11.20;;;4.18;;
16845;SDS011;8539;53.188;8.696;2023-09-30T09:44:59;13.77;;;3.63;;
16845;SDS011;8539;53.188;8.696;2023-09-30T09:47:29;11.82;;;3.45;;
16845;SDS011;8539;53.188;8.696;2023-09-30T09:49:57;9.88;;;2.90;;
16845;SDS011;8539;53.188;8.696;2023-09-30T09:52:24;14.07;;;3.20;;
16845;SDS011;8539;53.188;8.696;2023-09-30T09:54:50;8.32;;;2.88;;
16845;SDS011;8539;53.188;8.696;2023-09-30T09:57:17;11.88;;;3.88;;
16845;SDS011;8539;53.188;8.696;2023-09-30T09:59:44;8.77;;;3.22;;
16845;SDS011;8539;53.188;8.696;2023-09-30T10:02:15;7.32;;;2.53;;
16845;SDS011;8539;53.188;8.696;2023-09-30T10:04:43;8.30;;;2.80;;
16845;SDS011;8539;53.188;8.696;2023-09-30T10:12:12;9.68;;;3.10;;
16845;SDS011;8539;53.188;8.696;2023-09-30T10:14:40;5.40;;;2.15;;
16845;SDS011;8539;53.188;8.696;2023-09-30T10:17:06;10.65;;;3.20;;
16845;SDS011;8539;53.188;8.696;2023-09-30T10:19:33;9.27;;;2.55;;
16845;SDS011;8539;53.188;8.696;2023-09-30T10:24:52;7.82;;;2.28;;
16845;SDS011;8539;53.188;8.696;2023-09-30T10:29:58;10.70;;;2.63;;
16845;SDS011;8539;53.188;8.696;2023-09-30T10:37:43;9.48;;;2.33;;
16845;SDS011;8539;53.188;8.696;2023-09-30T10:40:10;11.65;;;2.42;;
16845;SDS011;8539;53.188;8.696;2023-09-30T10:42:56;7.60;;;2.35;;
16845;SDS011;8539;53.188;8.696;2023-09-30T10:46:09;12.82;;;2.75;;
16845;SDS011;8539;53.188;8.696;2023-09-30T10:53:47;7.95;;;2.85;;
16845;SDS011;8539;53.188;8.696;2023-09-30T10:56:14;10.75;;;2.63;;
16845;SDS011;8539;53.188;8.696;2023-09-30T10:58:41;11.20;;;2.35;;
16845;SDS011;8539;53.188;8.696;2023-09-30T11:01:09;6.40;;;2.13;;
16845;SDS011;8539;53.188;8.696;2023-09-30T11:03:35;9.18;;;2.35;;
16845;SDS011;8539;53.188;8.696;2023-09-30T11:06:02;9.73;;;3.03;;
16845;SDS011;8539;53.188;8.696;2023-09-30T11:08:29;16.60;;;4.50;;
16845;SDS011;8539;53.188;8.696;2023-09-30T11:10:56;7.80;;;2.33;;
16845;SDS011;8539;53.188;8.696;2023-09-30T11:13:22;8.75;;;2.35;;
16845;SDS011;8539;53.188;8.696;2023-09-30T11:15:48;9.23;;;2.28;;
16845;SDS011;8539;53.188;8.696;2023-09-30T11:18:26;11.52;;;3.17;;
16845;SDS011;8539;53.188;8.696;2023-09-30T11:20:53;7.70;;;2.20;;
16845;SDS011;8539;53.188;8.696;2023-09-30T11:23:34;11.00;;;2.33;;
16845;SDS011;8539;53.188;8.696;2023-09-30T11:26:01;11.23;;;2.53;;
16845;SDS011;8539;53.188;8.696;2023-09-30T11:28:34;8.45;;;1.90;;
16845;SDS011;8539;53.188;8.696;2023-09-30T11:31:02;10.82;;;2.17;;
16845;SDS011;8539;53.188;8.696;2023-09-30T11:33:29;6.70;;;1.58;;
16845;SDS011;8539;53.188;8.696;2023-09-30T11:35:56;11.43;;;2.58;;
16845;SDS011;8539;53.188;8.696;2023-09-30T11:38:27;9.23;;;2.10;;
16845;SDS011;8539;53.188;8.696;2023-09-30T11:41:00;12.70;;;2.53;;
16845;SDS011;8539;53.188;8.696;2023-09-30T11:43:32;9.27;;;2.05;;
16845;SDS011;8539;53.188;8.696;2023-09-30T11:46:06;7.75;;;2.25;;
16845;SDS011;8539;53.188;8.696;2023-09-30T11:51:28;9.38;;;2.53;;
16845;SDS011;8539;53.188;8.696;2023-09-30T11:53:55;10.40;;;1.88;;
16845;SDS011;8539;53.188;8.696;2023-09-30T11:56:23;9.18;;;2.47;;
16845;SDS011;8539;53.188;8.696;2023-09-30T11:58:55;5.63;;;1.90;;
16845;SDS011;8539;53.188;8.696;2023-09-30T12:01:22;10.25;;;2.53;;
16845;SDS011;8539;53.188;8.696;2023-09-30T12:03:50;5.05;;;2.10;;
16845;SDS011;8539;53.188;8.696;2023-09-30T12:06:17;12.18;;;3.22;;
16845;SDS011;8539;53.188;8.696;2023-09-30T12:08:43;4.40;;;1.50;;
16845;SDS011;8539;53.188;8.696;2023-09-30T12:11:10;5.63;;;1.80;;
16845;SDS011;8539;53.188;8.696;2023-09-30T12:13:41;9.13;;;2.60;;
16845;SDS011;8539;53.188;8.696;2023-09-30T12:16:07;4.80;;;1.92;;
16845;SDS011;8539;53.188;8.696;2023-09-30T12:18:33;8.90;;;1.80;;
16845;SDS011;8539;53.188;8.696;2023-09-30T12:20:59;4.20;;;1.50;;
16845;SDS011;8539;53.188;8.696;2023-09-30T12:23:25;4.85;;;2.00;;
16845;SDS011;8539;53.188;8.696;2023-09-30T12:25:52;7.68;;;2.03;;
16845;SDS011;8539;53.188;8.696;2023-09-30T12:28:20;12.20;;;2.88;;
16845;SDS011;8539;53.188;8.696;2023-09-30T12:30:46;11.18;;;2.20;;
16845;SDS011;8539;53.188;8.696;2023-09-30T12:33:12;5.97;;;1.73;;
16845;SDS011;8539;53.188;8.696;2023-09-30T12:35:38;11.20;;;1.83;;
16845;SDS011;8539;53.188;8.696;2023-09-30T12:38:04;7.10;;;2.20;;
16845;SDS011;8539;53.188;8.696;2023-09-30T12:40:30;9.23;;;1.90;;
16845;SDS011;8539;53.188;8.696;2023-09-30T12:42:56;9.98;;;2.15;;
16845;SDS011;8539;53.188;8.696;2023-09-30T12:45:23;8.52;;;2.10;;
16845;SDS011;8539;53.188;8.696;2023-09-30T12:47:49;12.68;;;2.90;;
16845;SDS011;8539;53.188;8.696;2023-09-30T12:50:18;6.30;;;2.38;;
16845;SDS011;8539;53.188;8.696;2023-09-30T12:52:44;5.68;;;1.55;;
16845;SDS011;8539;53.188;8.696;2023-09-30T12:55:10;5.93;;;2.17;;
16845;SDS011;8539;53.188;8.696;2023-09-30T12:57:36;31.92;;;2.67;;
16845;SDS011;8539;53.188;8.696;2023-09-30T13:00:03;7.85;;;2.55;;
16845;SDS011;8539;53.188;8.696;2023-09-30T13:02:30;8.30;;;2.17;;
16845;SDS011;8539;53.188;8.696;2023-09-30T13:04:56;8.77;;;2.05;;
16845;SDS011;8539;53.188;8.696;2023-09-30T13:07:22;7.30;;;1.92;;
16845;SDS011;8539;53.188;8.696;2023-09-30T13:09:50;7.88;;;2.03;;
16845;SDS011;8539;53.188;8.696;2023-09-30T13:12:16;6.68;;;1.83;;
16845;SDS011;8539;53.188;8.696;2023-09-30T13:14:42;4.47;;;1.50;;
16845;SDS011;8539;53.188;8.696;2023-09-30T13:17:08;5.72;;;1.80;;
16845;SDS011;8539;53.188;8.696;2023-09-30T13:19:34;5.30;;;1.58;;
16845;SDS011;8539;53.188;8.696;2023-09-30T13:22:00;10.30;;;2.17;;
16845;SDS011;8539;53.188;8.696;2023-09-30T13:24:26;6.57;;;1.50;;
16845;SDS011;8539;53.188;8.696;2023-09-30T13:26:52;6.05;;;1.92;;
16845;SDS011;8539;53.188;8.696;2023-09-30T13:29:19;9.98;;;1.83;;
16845;SDS011;8539;53.188;8.696;2023-09-30T13:31:45;4.63;;;2.38;;
16845;SDS011;8539;53.188;8.696;2023-09-30T13:34:11;6.75;;;1.77;;
16845;SDS011;8539;53.188;8.696;2023-09-30T13:36:40;5.32;;;1.70;;
16845;SDS011;8539;53.188;8.696;2023-09-30T13:39:06;5.47;;;1.58;;
16845;SDS011;8539;53.188;8.696;2023-09-30T13:41:35;8.88;;;1.60;;
16845;SDS011;8539;53.188;8.696;2023-09-30T13:44:01;5.07;;;1.50;;
16845;SDS011;8539;53.188;8.696;2023-09-30T13:46:28;6.55;;;1.63;;
16845;SDS011;8539;53.188;8.696;2023-09-30T13:48:58;5.97;;;1.80;;
16845;SDS011;8539;53.188;8.696;2023-09-30T13:51:24;4.53;;;1.63;;
16845;SDS011;8539;53.188;8.696;2023-09-30T13:53:51;8.18;;;1.92;;
16845;SDS011;8539;53.188;8.696;2023-09-30T13:56:19;9.45;;;1.85;;
16845;SDS011;8539;53.188;8.696;2023-09-30T13:58:47;5.88;;;1.77;;
16845;SDS011;8539;53.188;8.696;2023-09-30T14:01:14;5.82;;;1.85;;
16845;SDS011;8539;53.188;8.696;2023-09-30T14:03:41;4.35;;;1.35;;
16845;SDS011;8539;53.188;8.696;2023-09-30T14:06:10;10.15;;;2.38;;
16845;SDS011;8539;53.188;8.696;2023-09-30T14:08:42;6.40;;;2.22;;
16845;SDS011;8539;53.188;8.696;2023-09-30T14:11:08;4.03;;;2.28;;
16845;SDS011;8539;53.188;8.696;2023-09-30T14:13:34;3.65;;;1.90;;
16845;SDS011;8539;53.188;8.696;2023-09-30T14:16:01;5.88;;;1.60;;
16845;SDS011;8539;53.188;8.696;2023-09-30T14:18:27;4.15;;;1.75;;
16845;SDS011;8539;53.188;8.696;2023-09-30T14:20:53;5.28;;;1.58;;
16845;SDS011;8539;53.188;8.696;2023-09-30T14:23:19;4.43;;;0.95;;
16845;SDS011;8539;53.188;8.696;2023-09-30T14:25:45;9.13;;;2.40;;
16845;SDS011;8539;53.188;8.696;2023-09-30T14:28:11;8.98;;;1.90;;
16845;SDS011;8539;53.188;8.696;2023-09-30T14:30:37;5.97;;;1.70;;
16845;SDS011;8539;53.188;8.696;2023-09-30T14:33:03;5.07;;;2.00;;
16845;SDS011;8539;53.188;8.696;2023-09-30T14:35:29;6.72;;;2.67;;
16845;SDS011;8539;53.188;8.696;2023-09-30T14:37:57;12.00;;;2.70;;
16845;SDS011;8539;53.188;8.696;2023-09-30T14:40:23;9.32;;;2.17;;
16845;SDS011;8539;53.188;8.696;2023-09-30T14:42:49;7.97;;;2.17;;
16845;SDS011;8539;53.188;8.696;2023-09-30T14:45:15;5.57;;;1.88;;
16845;SDS011;8539;53.188;8.696;2023-09-30T14:47:42;6.72;;;2.00;;
16845;SDS011;8539;53.188;8.696;2023-09-30T14:50:09;9.27;;;1.77;;
16845;SDS011;8539;53.188;8.696;2023-09-30T14:52:35;5.15;;;1.95;;
16845;SDS011;8539;53.188;8.696;2023-09-30T14:55:01;6.35;;;1.95;;
16845;SDS011;8539;53.188;8.696;2023-09-30T14:57:27;6.55;;;2.10;;
16845;SDS011;8539;53.188;8.696;2023-09-30T14:59:53;7.15;;;2.65;;
16845;SDS011;8539;53.188;8.696;2023-09-30T15:02:22;9.00;;;1.98;;
16845;SDS011;8539;53.188;8.696;2023-09-30T15:04:48;11.75;;;2.40;;
16845;SDS011;8539;53.188;8.696;2023-09-30T15:07:14;5.60;;;1.98;;
16845;SDS011;8539;53.188;8.696;2023-09-30T15:09:40;7.10;;;2.10;;
16845;SDS011;8539;53.188;8.696;2023-09-30T15:12:06;5.25;;;2.20;;
16845;SDS011;8539;53.188;8.696;2023-09-30T15:14:32;4.22;;;1.70;;
16845;SDS011;8539;53.188;8.696;2023-09-30T15:16:58;5.07;;;1.45;;
16845;SDS011;8539;53.188;8.696;2023-09-30T15:19:24;8.45;;;1.80;;